createdAt,value
2022-11-29T06:52:58.344Z,96740.81
2022-11-29T06:55:08.782Z,96739.78
2022-11-29T06:57:21.050Z,96746.63
2022-11-29T06:59:38.193Z,96751.59
2022-11-29T07:01:47.064Z,96738.03
2022-11-29T07:04:08.399Z,96738.47
2022-11-29T07:06:21.884Z,96731.41
2022-11-29T07:08:27.027Z,96740.97
2022-11-29T07:10:31.751Z,96741.19
2022-11-29T07:12:35.100Z,96746.69
2022-11-29T07:14:38.263Z,96750.00
2022-11-29T07:16:54.441Z,96757.72
2022-11-29T07:19:10.171Z,96759.97
2022-11-29T07:21:20.844Z,96756.09
2022-11-29T07:23:34.395Z,96754.88
2022-11-29T07:25:46.998Z,96758.16
2022-11-29T07:28:02.556Z,96761.00
2022-11-29T07:30:13.724Z,96752.06
2022-11-29T07:32:23.694Z,96760.81
2022-11-29T07:34:35.478Z,96757.97
2022-11-29T07:36:50.489Z,96765.91
2022-11-29T07:39:04.182Z,96755.50
2022-11-29T07:41:15.532Z,96757.34
2022-11-29T07:43:34.968Z,96764.28
2022-11-29T07:45:37.881Z,96762.25
2022-11-29T07:47:40.584Z,96768.16
2022-11-29T07:49:45.552Z,96759.22
2022-11-29T07:51:48.545Z,96764.31
2022-11-29T07:53:51.330Z,96761.44
2022-11-29T07:55:56.658Z,96762.25
2022-11-29T07:57:59.611Z,96770.81
2022-11-29T08:00:03.474Z,96769.59
2022-11-29T08:02:11.533Z,96767.75
2022-11-29T08:04:15.143Z,96772.88
2022-11-29T08:06:17.927Z,96767.59
2022-11-29T08:08:20.673Z,96771.06
2022-11-29T08:10:24.306Z,96770.88
2022-11-29T08:12:28.619Z,96770.88
2022-11-29T08:14:33.276Z,96776.16
2022-11-29T08:16:36.843Z,96775.34
2022-11-29T08:18:39.700Z,96774.13
2022-11-29T08:20:43.198Z,96777.59
2022-11-29T08:22:46.571Z,96771.28
2022-11-29T08:24:49.673Z,96778.41
2022-11-29T08:26:52.607Z,96779.44
2022-11-29T08:28:56.911Z,96781.06
2022-11-29T08:31:04.759Z,96777.38
2022-11-29T08:33:08.061Z,96783.28
2022-11-29T08:35:10.904Z,96781.25
2022-11-29T08:37:13.754Z,96778.00
2022-11-29T08:39:16.559Z,96780.66
2022-11-29T08:41:20.598Z,96784.31
2022-11-29T08:43:23.369Z,96785.94
2022-11-29T08:45:27.570Z,96782.28
2022-11-29T08:47:39.063Z,96784.75
2022-11-29T08:50:01.236Z,96781.09
2022-11-29T08:52:21.551Z,96791.28
2022-11-29T08:54:24.226Z,96793.09
2022-11-29T08:58:50.658Z,96801.66
2022-11-29T09:00:55.263Z,96796.97
2022-11-29T09:03:18.063Z,96801.84
2022-11-29T09:05:20.836Z,96800.88
2022-11-29T09:07:23.726Z,96805.16
2022-11-29T09:09:26.501Z,96805.75
2022-11-29T09:11:31.059Z,96802.09
2022-11-29T09:13:35.982Z,96809.22
2022-11-29T09:15:39.509Z,96801.47
2022-11-29T09:17:46.052Z,96809.22
2022-11-29T09:19:48.984Z,96808.00
2022-11-29T09:21:51.773Z,96806.16
2022-11-29T09:23:58.670Z,96804.31
2022-11-29T09:26:01.462Z,96810.44
2022-11-29T09:28:04.818Z,96801.47
2022-11-29T09:30:09.575Z,96804.31
2022-11-29T09:32:12.449Z,96806.75
2022-11-29T09:34:18.502Z,96805.56
2022-11-29T09:36:26.579Z,96803.72
2022-11-29T09:38:31.187Z,96812.50
2022-11-29T09:40:39.884Z,96809.84
2022-11-29T09:42:51.362Z,96812.09
2022-11-29T09:45:03.265Z,96808.00
2022-11-29T09:47:21.977Z,96808.81
2022-11-29T09:49:38.962Z,96804.34
2022-11-29T09:51:53.445Z,96809.66
2022-11-29T09:54:20.731Z,96809.66
2022-11-29T09:56:29.601Z,96810.47
2022-11-29T09:58:40.580Z,96804.94
2022-11-29T10:00:49.624Z,96811.69
2022-11-29T10:02:58.071Z,96801.06
2022-11-29T10:05:08.344Z,96808.22
2022-11-29T10:07:18.745Z,96801.28
2022-11-29T10:09:29.541Z,96804.13
2022-11-29T10:11:41.003Z,96807.19
2022-11-29T10:13:48.255Z,96805.38
2022-11-29T10:15:55.804Z,96816.16
2022-11-29T10:18:04.318Z,96808.00
2022-11-29T10:20:13.760Z,96812.91
2022-11-29T10:22:22.261Z,96816.16
2022-11-29T10:24:28.166Z,96804.31
2022-11-29T10:26:35.117Z,96806.56
2022-11-29T10:28:38.776Z,96807.41
2022-11-29T10:30:43.053Z,96801.91
2022-11-29T10:32:48.278Z,96796.19
2022-11-29T10:34:52.043Z,96806.38
2022-11-29T10:37:00.703Z,96800.88
2022-11-29T10:39:14.193Z,96807.22
2022-11-29T10:41:23.310Z,96804.56
2022-11-29T10:43:27.119Z,96809.25
2022-11-29T10:45:34.381Z,96800.88
2022-11-29T10:47:37.558Z,96798.22
2022-11-29T10:49:40.612Z,96806.19
2022-11-29T10:51:43.799Z,96807.59
2022-11-29T10:53:47.836Z,96801.69
2022-11-29T10:55:55.305Z,96790.69
2022-11-29T10:58:16.024Z,96794.16
2022-11-29T11:00:18.833Z,96794.78
2022-11-29T11:02:24.471Z,96791.09
2022-11-29T11:04:30.932Z,96789.88
2022-11-29T11:06:46.775Z,96793.75
2022-11-29T11:08:53.587Z,96785.38
2022-11-29T11:11:01.660Z,96791.28
2022-11-29T11:13:11.617Z,96785.56
2022-11-29T11:15:27.609Z,96781.69
2022-11-29T11:17:32.974Z,96783.16
2022-11-29T11:19:35.942Z,96781.50
2022-11-29T11:21:40.059Z,96779.03
2022-11-29T11:23:52.774Z,96783.56
2022-11-29T11:26:02.942Z,96775.59
2022-11-29T11:28:20.375Z,96780.50
2022-11-29T11:30:25.549Z,96786.19
2022-11-29T11:32:28.467Z,96780.69
2022-11-29T11:34:36.640Z,96782.13
2022-11-29T11:36:39.282Z,96777.03
2022-11-29T11:38:50.155Z,96789.88
2022-11-29T11:41:04.992Z,96790.25
2022-11-29T11:43:20.354Z,96777.03
2022-11-29T11:45:28.422Z,96784.38
2022-11-29T11:47:34.002Z,96787.84
2022-11-29T11:49:46.788Z,96786.00
2022-11-29T11:51:49.764Z,96783.56
2022-11-29T11:53:56.300Z,96782.75
2022-11-29T11:56:01.686Z,96781.50
2022-11-29T11:58:16.814Z,96788.03
2022-11-29T12:03:24.617Z,96777.03
2022-11-29T12:05:27.491Z,96782.53
2022-11-29T12:08:06.825Z,96784.34
2022-11-29T12:10:05.013Z,96785.41
2022-11-29T12:12:15.343Z,96792.31
2022-11-29T12:14:26.667Z,96785.97
2022-11-29T12:16:35.561Z,96786.41
2022-11-29T12:18:44.533Z,96785.16
2022-11-29T12:20:54.779Z,96790.69
2022-11-29T12:23:10.422Z,96788.03
2022-11-29T12:25:18.755Z,96792.31
2022-11-29T12:27:21.589Z,96796.19
2022-11-29T12:29:29.252Z,96786.81
2022-11-29T12:31:44.774Z,96784.97
2022-11-29T12:33:56.814Z,96786.00
2022-11-29T12:36:15.261Z,96786.38
2022-11-29T12:38:37.477Z,96778.63
2022-11-29T12:40:48.618Z,96786.22
2022-11-29T12:42:58.906Z,96781.50
2022-11-29T12:45:17.459Z,96783.56
2022-11-29T12:47:37.043Z,96780.69
2022-11-29T12:49:50.841Z,96780.06
2022-11-29T12:51:59.272Z,96787.22
2022-11-29T12:54:24.537Z,96791.69
2022-11-29T12:56:32.195Z,96782.13
2022-11-29T12:58:46.241Z,96783.94
2022-11-29T13:00:59.650Z,96783.56
2022-11-29T13:03:16.423Z,96789.66
2022-11-29T13:05:31.330Z,96784.16
2022-11-29T13:07:43.673Z,96776.19
2022-11-29T13:10:02.849Z,96785.78
2022-11-29T13:12:14.112Z,96780.91
2022-11-29T13:16:53.506Z,96775.78
2022-11-29T13:19:05.863Z,96776.59
2022-11-29T13:21:14.802Z,96775.19
2022-11-29T13:23:39.083Z,96779.88
2022-11-29T13:25:51.826Z,96769.88
2022-11-29T13:27:59.393Z,96770.69
2022-11-29T13:30:02.859Z,96764.56
2022-11-29T13:32:15.618Z,96775.19
2022-11-29T13:34:23.560Z,96770.28
2022-11-29T13:36:34.376Z,96773.75
2022-11-29T13:38:41.992Z,96767.44
2022-11-29T13:40:55.322Z,96769.88
2022-11-29T13:43:05.367Z,96770.50
2022-11-29T13:45:22.584Z,96761.94
2022-11-29T13:47:26.743Z,96769.28
2022-11-29T13:49:52.250Z,96766.00
2022-11-29T13:52:06.557Z,96770.28
2022-11-29T13:54:29.049Z,96773.34
2022-11-29T13:56:36.925Z,96778.03
2022-11-29T13:58:41.095Z,96771.72
2022-11-29T14:00:51.720Z,96777.03
2022-11-29T14:02:57.255Z,96778.84
2022-11-29T14:05:00.189Z,96780.28
2022-11-29T14:07:09.846Z,96777.63
2022-11-29T14:09:33.305Z,96779.25
2022-11-29T14:11:45.750Z,96775.78
2022-11-29T14:13:53.221Z,96776.59
2022-11-29T14:15:58.373Z,96783.53
2022-11-29T14:18:07.168Z,96778.06
2022-11-29T14:20:49.225Z,96775.56
2022-11-29T14:23:16.931Z,96771.72
2022-11-29T14:25:50.534Z,96778.44
2022-11-29T14:28:06.058Z,96779.69
2022-11-29T14:30:30.345Z,96780.28
2022-11-29T14:32:46.134Z,96770.50
2022-11-29T14:34:55.960Z,96770.91
2022-11-29T14:37:09.128Z,96776.00
2022-11-29T14:39:34.902Z,96777.44
2022-11-29T14:41:52.308Z,96787.00
2022-11-29T14:44:09.394Z,96785.38
2022-11-29T14:46:29.738Z,96782.72
2022-11-29T14:48:35.017Z,96788.03
2022-11-29T14:50:41.676Z,96790.69
2022-11-29T14:52:52.530Z,96789.66
2022-11-29T14:54:59.784Z,96784.34
2022-11-29T14:57:36.268Z,96789.25
2022-11-29T14:59:50.587Z,96791.06
2022-11-29T15:01:53.739Z,96803.53
2022-11-29T15:03:57.236Z,96790.47
2022-11-29T15:06:09.564Z,96789.66
2022-11-29T15:08:18.879Z,96794.34
2022-11-29T15:10:26.319Z,96795.78
2022-11-29T15:12:35.044Z,96796.59
2022-11-29T15:14:50.346Z,96792.09
2022-11-29T15:17:05.464Z,96784.97
2022-11-29T15:19:32.077Z,96787.63
2022-11-29T15:21:45.090Z,96787.00
2022-11-29T15:23:47.774Z,96788.84
2022-11-29T15:25:52.642Z,96788.03
2022-11-29T15:27:57.778Z,96797.00
2022-11-29T15:30:18.574Z,96793.34
2022-11-29T15:32:26.094Z,96796.19
2022-11-29T15:34:35.882Z,96793.75
2022-11-29T15:36:44.325Z,96803.53
2022-11-29T15:38:50.164Z,96808.03
2022-11-29T15:40:54.647Z,96801.09
2022-11-29T15:43:05.133Z,96798.63
2022-11-29T15:45:33.353Z,96812.91
2022-11-29T15:47:36.325Z,96809.66
2022-11-29T15:49:38.995Z,96809.25
2022-11-29T15:51:44.133Z,96808.00
2022-11-29T15:53:50.389Z,96814.31
2022-11-29T15:55:57.459Z,96810.06
2022-11-29T15:58:08.296Z,96818.00
2022-11-29T16:00:17.085Z,96808.41
2022-11-29T16:02:24.138Z,96814.75
2022-11-29T16:04:28.178Z,96811.69
2022-11-29T16:06:42.789Z,96813.53
2022-11-29T16:08:47.113Z,96814.56
2022-11-29T16:10:53.103Z,96818.84
2022-11-29T16:12:58.400Z,96811.91
2022-11-29T16:15:02.578Z,96817.59
2022-11-29T16:17:05.702Z,96815.34
2022-11-29T16:19:11.091Z,96818.00
2022-11-29T16:21:26.265Z,96818.81
2022-11-29T16:23:34.145Z,96817.38
2022-11-29T16:25:54.971Z,96825.34
2022-11-29T16:27:57.885Z,96821.88
2022-11-29T16:30:01.233Z,96812.28
2022-11-29T16:32:14.925Z,96814.13
2022-11-29T16:34:25.916Z,96811.47
2022-11-29T16:36:28.782Z,96821.47
2022-11-29T16:38:31.617Z,96814.50
2022-11-29T16:40:35.722Z,96825.13
2022-11-29T16:42:39.851Z,96822.66
2022-11-29T16:45:28.129Z,96822.66
2022-11-29T16:47:32.658Z,96823.91
2022-11-29T16:49:37.014Z,96825.53
2022-11-29T16:51:48.107Z,96824.72
2022-11-29T16:53:52.005Z,96819.41
2022-11-29T16:55:54.809Z,96833.69
2022-11-29T16:57:58.950Z,96833.06
2022-11-29T17:00:01.648Z,96831.22
2022-11-29T17:02:04.553Z,96837.97
2022-11-29T17:04:09.666Z,96825.91
2022-11-29T17:06:14.737Z,96834.06
2022-11-29T17:08:17.472Z,96836.09
2022-11-29T17:10:24.895Z,96834.06
2022-11-29T17:12:27.574Z,96833.25
2022-11-29T17:14:33.245Z,96830.41
2022-11-29T17:16:35.968Z,96833.84
2022-11-29T17:18:38.744Z,96828.72
2022-11-29T17:20:41.486Z,96834.19
2022-11-29T17:22:44.223Z,96831.13
2022-11-29T17:24:48.602Z,96830.72
2022-11-29T17:26:52.338Z,96825.19
2022-11-29T17:28:55.113Z,96828.22
2022-11-29T17:30:59.286Z,96821.72
2022-11-29T17:33:02.496Z,96825.75
2022-11-29T17:35:05.879Z,96827.78
2022-11-29T17:37:08.798Z,96824.13
2022-11-29T17:39:11.608Z,96831.44
2022-11-29T17:41:15.912Z,96821.25
2022-11-29T17:43:18.531Z,96834.69
2022-11-29T17:45:21.207Z,96840.00
2022-11-29T17:47:25.271Z,96837.50
2022-11-29T17:49:28.103Z,96842.00
2022-11-29T17:53:54.649Z,96842.44
2022-11-29T17:56:03.012Z,96840.97
2022-11-29T17:58:05.822Z,96844.44
2022-11-29T18:00:12.803Z,96843.38
2022-11-29T18:02:15.557Z,96845.19
2022-11-29T18:04:19.638Z,96851.94
2022-11-29T18:06:24.380Z,96850.31
2022-11-29T18:08:27.089Z,96850.69
2022-11-29T18:10:30.078Z,96853.13
2022-11-29T18:12:32.762Z,96857.63
2022-11-29T18:14:38.193Z,96852.72
2022-11-29T18:16:41.411Z,96859.03
2022-11-29T18:18:45.193Z,96853.69
2022-11-29T18:20:49.216Z,96857.75
2022-11-29T18:22:53.443Z,96859.81
2022-11-29T18:25:10.011Z,96856.59
2022-11-29T18:27:19.301Z,96858.03
2022-11-29T18:29:23.176Z,96858.84
2022-11-29T18:31:28.282Z,96870.63
2022-11-29T18:33:31.020Z,96872.06
2022-11-29T18:35:33.729Z,96867.19
2022-11-29T18:38:12.777Z,96866.22
2022-11-29T18:40:00.396Z,96875.56
2022-11-29T18:42:03.273Z,96872.94
2022-11-29T18:44:08.010Z,96866.63
2022-11-29T18:46:12.905Z,96873.75
2022-11-29T18:48:15.779Z,96881.69
2022-11-29T18:50:18.425Z,96871.50
2022-11-29T18:52:21.070Z,96875.13
2022-11-29T18:54:25.149Z,96875.31
2022-11-29T18:56:29.981Z,96873.28
2022-11-29T18:58:32.685Z,96871.50
2022-11-29T19:00:35.423Z,96872.47
2022-11-29T19:02:38.106Z,96872.69
2022-11-29T19:04:40.822Z,96871.66
2022-11-29T19:06:44.509Z,96865.34
2022-11-29T19:08:47.457Z,96875.31
2022-11-29T19:10:51.472Z,96876.75
2022-11-29T19:12:55.014Z,96878.56
2022-11-29T19:14:57.654Z,96884.88
2022-11-29T19:17:00.630Z,96894.84
2022-11-29T19:19:03.501Z,96889.91
2022-11-29T19:21:06.679Z,96891.94
2022-11-29T19:23:09.402Z,96886.47
2022-11-29T19:25:12.179Z,96882.63
2022-11-29T19:27:16.322Z,96874.50
2022-11-29T19:29:19.029Z,96879.78
2022-11-29T19:31:25.173Z,96881.22
2022-11-29T19:33:28.168Z,96881.41
2022-11-29T19:35:30.917Z,96876.31
2022-11-29T19:37:34.247Z,96888.91
2022-11-29T19:39:38.105Z,96890.56
2022-11-29T19:41:42.250Z,96892.81
2022-11-29T19:43:46.636Z,96894.44
2022-11-29T19:45:49.391Z,96881.41
2022-11-29T19:47:52.121Z,96883.25
2022-11-29T19:49:59.270Z,96886.72
2022-11-29T19:52:05.017Z,96882.84
2022-11-29T19:54:09.998Z,96889.78
2022-11-29T19:56:14.637Z,96886.13
2022-11-29T19:58:17.290Z,96886.94
2022-11-29T20:00:22.692Z,96888.75
2022-11-29T20:02:25.481Z,96890.56
2022-11-29T20:04:28.317Z,96894.19
2022-11-29T20:06:32.046Z,96897.28
2022-11-29T20:08:34.965Z,96898.13
2022-11-29T20:10:37.636Z,96895.03
2022-11-29T20:12:40.305Z,96901.78
2022-11-29T20:14:42.952Z,96900.13
2022-11-29T20:16:46.931Z,96902.38
2022-11-29T20:18:51.708Z,96908.06
2022-11-29T20:20:54.317Z,96901.31
2022-11-29T20:22:57.328Z,96899.13
2022-11-29T20:25:00.004Z,96907.09
2022-11-29T20:27:05.095Z,96891.66
2022-11-29T20:29:09.709Z,96889.63
2022-11-29T20:31:14.720Z,96895.72
2022-11-29T20:33:23.036Z,96896.75
2022-11-29T20:35:26.029Z,96901.03
2022-11-29T20:37:38.602Z,96902.25
2022-11-29T20:39:50.448Z,96896.94
2022-11-29T20:42:12.598Z,96901.44
2022-11-29T20:44:21.042Z,96894.47
2022-11-29T20:46:25.659Z,96897.31
2022-11-29T20:48:30.180Z,96887.53
2022-11-29T20:50:33.707Z,96898.94
2022-11-29T20:52:46.113Z,96896.94
2022-11-29T20:54:48.727Z,96902.47
2022-11-29T20:56:51.607Z,96903.06
2022-11-29T20:58:54.378Z,96905.09
2022-11-29T21:00:57.664Z,96903.69
2022-11-29T21:03:00.615Z,96911.63
2022-11-29T21:05:05.242Z,96914.53
2022-11-29T21:07:07.926Z,96912.31
2022-11-29T21:09:11.314Z,96908.28
2022-11-29T21:11:14.629Z,96908.88
2022-11-29T21:13:18.778Z,96906.66
2022-11-29T21:15:22.506Z,96909.28
2022-11-29T21:17:32.988Z,96914.59
2022-11-29T21:19:36.786Z,96909.09
2022-11-29T21:21:48.463Z,96907.06
2022-11-29T21:24:02.119Z,96906.91
2022-11-29T21:26:11.519Z,96906.44
2022-11-29T21:28:16.729Z,96908.91
2022-11-29T21:30:22.305Z,96905.22
2022-11-29T21:32:26.853Z,96904.34
2022-11-29T21:34:29.805Z,96905.78
2022-11-29T21:36:32.411Z,96902.78
2022-11-29T21:38:36.562Z,96905.03
2022-11-29T21:40:39.272Z,96916.44
2022-11-29T21:42:42.283Z,96903.19
